createdAt,value
2022-12-29T00:01:40.824Z,10.62
2022-12-29T00:04:26.029Z,10.56
2022-12-29T00:07:12.494Z,10.50
2022-12-29T00:09:57.668Z,10.49
2022-12-29T00:13:01.179Z,10.64
2022-12-29T00:15:46.429Z,10.70
2022-12-29T00:18:31.370Z,10.71
2022-12-29T00:21:37.499Z,10.82
2022-12-29T00:24:22.864Z,10.97
2022-12-29T00:27:26.284Z,11.07
2022-12-29T00:30:31.943Z,11.15
2022-12-29T00:33:37.957Z,11.15
2022-12-29T00:36:35.770Z,11.25
2022-12-29T00:39:39.373Z,11.21
2022-12-29T00:42:42.944Z,11.30
2022-12-29T00:45:27.987Z,11.45
2022-12-29T00:48:13.091Z,11.42
2022-12-29T00:50:59.167Z,11.39
2022-12-29T00:53:43.930Z,11.61
2022-12-29T00:56:29.089Z,11.52
2022-12-29T00:59:14.221Z,11.44
2022-12-29T01:01:59.542Z,11.49
2022-12-29T01:04:44.750Z,11.45
2022-12-29T01:07:30.124Z,11.51
2022-12-29T01:10:16.049Z,11.52
2022-12-29T01:13:00.827Z,11.35
2022-12-29T01:15:53.643Z,11.42
2022-12-29T01:18:38.699Z,11.64
2022-12-29T01:21:24.537Z,11.62
2022-12-29T01:24:09.856Z,11.64
2022-12-29T01:26:55.408Z,11.84
2022-12-29T01:29:40.802Z,11.83
2022-12-29T01:32:25.873Z,11.84
2022-12-29T01:35:11.597Z,11.90
2022-12-29T01:37:56.872Z,11.91
2022-12-29T01:40:46.223Z,11.90
2022-12-29T01:43:51.340Z,12.04
2022-12-29T01:46:42.242Z,11.91
2022-12-29T01:49:30.144Z,12.00
2022-12-29T01:52:15.409Z,11.85
2022-12-29T01:55:04.017Z,11.85
2022-12-29T01:57:52.105Z,11.91
2022-12-29T02:00:38.540Z,11.81
2022-12-29T02:03:27.439Z,11.71
2022-12-29T02:06:19.121Z,11.68
2022-12-29T02:09:04.143Z,11.56
2022-12-29T02:11:49.393Z,11.62
2022-12-29T02:14:34.350Z,11.62
2022-12-29T02:17:24.573Z,11.59
2022-12-29T02:20:38.661Z,11.55
2022-12-29T02:23:44.190Z,11.50
2022-12-29T02:27:12.011Z,11.44
2022-12-29T02:30:06.327Z,11.40
2022-12-29T02:33:28.214Z,11.41
2022-12-29T02:36:31.647Z,11.34
2022-12-29T02:39:31.163Z,11.24
2022-12-29T02:42:51.861Z,11.31
2022-12-29T02:45:54.728Z,11.30
2022-12-29T02:48:55.916Z,11.30
2022-12-29T02:52:05.075Z,11.22
2022-12-29T02:54:50.701Z,11.28
2022-12-29T02:57:36.047Z,11.21
2022-12-29T03:00:21.068Z,11.30
2022-12-29T03:03:22.031Z,11.35
2022-12-29T03:06:26.847Z,11.40
2022-12-29T03:09:47.755Z,11.31
2022-12-29T03:13:04.477Z,11.44
2022-12-29T03:16:06.352Z,11.48
2022-12-29T03:19:07.736Z,11.31
2022-12-29T03:22:18.911Z,11.36
2022-12-29T03:25:19.519Z,11.40
2022-12-29T03:28:10.597Z,11.42
2022-12-29T03:30:58.607Z,11.44
2022-12-29T03:33:45.910Z,11.39
2022-12-29T03:36:38.396Z,11.29
2022-12-29T03:39:24.685Z,11.31
2022-12-29T03:42:14.959Z,11.38
2022-12-29T03:44:59.864Z,11.41
2022-12-29T03:47:44.793Z,11.41
2022-12-29T03:50:29.709Z,11.40
2022-12-29T03:53:14.811Z,11.39
2022-12-29T03:55:59.916Z,11.35
2022-12-29T03:58:44.919Z,11.39
2022-12-29T04:01:30.176Z,11.49
2022-12-29T04:04:15.223Z,11.48
2022-12-29T04:07:00.329Z,11.46
2022-12-29T04:09:45.292Z,11.62
2022-12-29T04:12:30.475Z,11.48
2022-12-29T04:15:15.572Z,11.42
2022-12-29T04:18:00.375Z,11.34
2022-12-29T04:21:00.934Z,11.40
2022-12-29T04:23:45.735Z,11.45
2022-12-29T04:26:31.024Z,11.42
2022-12-29T04:29:16.145Z,11.41
2022-12-29T04:32:01.312Z,11.45
2022-12-29T04:34:46.293Z,11.35
2022-12-29T04:37:31.488Z,11.42
2022-12-29T04:40:16.597Z,11.56
2022-12-29T04:43:02.085Z,11.47
2022-12-29T04:45:47.526Z,11.56
2022-12-29T04:48:32.566Z,11.52
2022-12-29T04:51:17.324Z,11.60
2022-12-29T04:54:03.674Z,11.58
2022-12-29T04:56:48.863Z,11.65
2022-12-29T04:59:34.012Z,11.52
2022-12-29T05:02:19.218Z,11.61
2022-12-29T05:05:04.796Z,11.58
2022-12-29T05:07:50.239Z,11.56
2022-12-29T05:10:35.483Z,11.58
2022-12-29T05:13:20.577Z,11.45
2022-12-29T05:16:05.771Z,11.49
2022-12-29T05:18:50.980Z,11.43
2022-12-29T05:21:36.163Z,11.52
2022-12-29T05:24:21.474Z,11.51
2022-12-29T05:27:06.333Z,11.66
2022-12-29T05:29:51.247Z,11.57
2022-12-29T05:32:36.163Z,11.61
2022-12-29T05:35:21.069Z,11.49
2022-12-29T05:38:06.008Z,11.55
2022-12-29T05:40:51.068Z,11.68
2022-12-29T05:43:36.007Z,11.64
2022-12-29T05:46:21.203Z,11.75
2022-12-29T05:49:06.885Z,11.73
2022-12-29T05:51:51.851Z,11.72
2022-12-29T05:54:37.105Z,11.83
2022-12-29T05:57:22.306Z,11.74
2022-12-29T06:00:08.358Z,11.71
2022-12-29T06:02:53.855Z,11.78
2022-12-29T06:05:39.201Z,11.78
2022-12-29T06:08:24.515Z,11.69
2022-12-29T06:11:09.414Z,11.70
2022-12-29T06:13:54.381Z,11.67
2022-12-29T06:16:39.334Z,11.57
2022-12-29T06:19:24.688Z,11.49
2022-12-29T06:22:11.733Z,11.36
2022-12-29T06:25:03.064Z,11.32
2022-12-29T06:27:50.255Z,11.34
2022-12-29T06:30:35.113Z,11.37
2022-12-29T06:33:20.292Z,11.40
2022-12-29T06:36:05.711Z,11.41
2022-12-29T06:38:53.272Z,11.48
2022-12-29T06:41:38.778Z,11.47
2022-12-29T06:44:24.087Z,11.49
2022-12-29T06:47:09.004Z,11.50
2022-12-29T06:49:54.115Z,11.51
2022-12-29T06:52:38.852Z,11.54
2022-12-29T06:55:23.913Z,11.51
2022-12-29T06:58:09.103Z,11.48
2022-12-29T07:00:54.186Z,11.40
2022-12-29T07:03:38.980Z,11.35
2022-12-29T07:06:24.108Z,11.28
2022-12-29T07:09:09.922Z,11.31
2022-12-29T07:11:54.815Z,11.37
2022-12-29T07:14:43.269Z,11.26
2022-12-29T07:17:28.786Z,11.26
2022-12-29T07:20:13.542Z,11.16
2022-12-29T07:22:59.459Z,11.17
2022-12-29T07:25:44.557Z,11.14
2022-12-29T07:28:30.820Z,11.14
2022-12-29T07:31:21.505Z,11.06
2022-12-29T07:34:06.493Z,11.09
2022-12-29T07:36:51.678Z,11.05
2022-12-29T07:39:36.379Z,11.05
2022-12-29T07:42:21.594Z,10.94
2022-12-29T07:45:07.228Z,10.95
2022-12-29T07:47:52.295Z,10.97
2022-12-29T07:50:37.737Z,10.93
2022-12-29T07:53:22.983Z,11.07
2022-12-29T07:56:08.145Z,11.03
2022-12-29T07:58:53.133Z,10.99
2022-12-29T08:01:38.052Z,11.00
2022-12-29T08:04:23.348Z,10.96
2022-12-29T08:07:09.300Z,11.08
2022-12-29T08:09:54.541Z,11.07
2022-12-29T08:12:40.579Z,11.08
2022-12-29T08:15:30.513Z,11.09
2022-12-29T08:18:17.673Z,11.04
2022-12-29T08:21:04.616Z,11.04
2022-12-29T08:23:49.792Z,11.02
2022-12-29T08:26:35.846Z,10.94
2022-12-29T08:29:22.249Z,10.99
2022-12-29T08:32:07.666Z,10.95
2022-12-29T08:34:52.758Z,11.02
2022-12-29T08:37:37.635Z,10.90
2022-12-29T08:40:22.791Z,10.99
2022-12-29T08:43:08.951Z,10.98
2022-12-29T08:45:54.188Z,10.89
2022-12-29T08:48:39.299Z,10.87
2022-12-29T08:51:25.130Z,10.82
2022-12-29T08:54:10.485Z,10.80
2022-12-29T08:56:55.387Z,11.03
2022-12-29T08:59:40.318Z,11.12
2022-12-29T09:02:25.238Z,11.18
2022-12-29T09:05:10.708Z,11.18
2022-12-29T09:07:56.116Z,11.10
2022-12-29T09:10:40.949Z,11.11
2022-12-29T09:13:26.132Z,11.06
2022-12-29T09:16:11.471Z,11.03
2022-12-29T09:18:56.571Z,11.03
2022-12-29T09:21:41.704Z,11.12
2022-12-29T09:24:26.868Z,11.17
2022-12-29T09:27:11.947Z,11.20
2022-12-29T09:29:57.240Z,11.22
2022-12-29T09:32:45.420Z,11.23
2022-12-29T09:35:31.658Z,11.27
2022-12-29T09:38:17.833Z,11.39
2022-12-29T09:41:17.733Z,11.42
2022-12-29T09:44:17.983Z,11.53
2022-12-29T09:47:03.295Z,11.64
2022-12-29T09:50:00.925Z,11.77
2022-12-29T09:53:01.849Z,11.88
2022-12-29T09:55:50.924Z,11.76
2022-12-29T09:58:39.362Z,11.57
2022-12-29T10:01:42.443Z,11.47
2022-12-29T10:04:29.058Z,11.51
2022-12-29T10:07:32.926Z,11.86
2022-12-29T10:10:30.949Z,11.61
2022-12-29T10:13:35.821Z,11.50
2022-12-29T10:16:41.156Z,12.28
2022-12-29T10:20:04.775Z,12.25
2022-12-29T10:23:10.390Z,12.33
2022-12-29T10:26:00.449Z,12.15
2022-12-29T10:28:57.382Z,12.55
2022-12-29T10:31:55.100Z,12.64
2022-12-29T10:34:45.988Z,12.60
2022-12-29T10:37:39.610Z,12.24
2022-12-29T10:40:43.245Z,12.18
2022-12-29T10:43:41.945Z,12.01
2022-12-29T10:46:34.968Z,12.06
2022-12-29T10:49:22.302Z,12.07
2022-12-29T10:52:09.045Z,12.06
2022-12-29T10:55:01.875Z,12.64
2022-12-29T10:57:48.513Z,12.63
2022-12-29T11:00:34.347Z,13.31
2022-12-29T11:04:00.000Z,12.48
2022-12-29T11:06:45.264Z,12.76
2022-12-29T11:09:42.439Z,12.49
2022-12-29T11:12:32.177Z,12.54
2022-12-29T11:15:17.412Z,12.77
2022-12-29T11:18:02.271Z,12.50
2022-12-29T11:20:47.977Z,12.70
2022-12-29T11:23:42.137Z,12.47
2022-12-29T11:26:34.182Z,12.55
2022-12-29T11:29:37.267Z,12.51
2022-12-29T11:32:28.841Z,12.46
2022-12-29T11:35:35.413Z,12.66
2022-12-29T11:38:32.574Z,12.31
2022-12-29T11:41:24.646Z,12.48
2022-12-29T11:44:13.454Z,12.29
2022-12-29T11:46:58.689Z,12.42
2022-12-29T11:49:51.146Z,12.39
2022-12-29T11:52:40.315Z,12.37
2022-12-29T11:55:27.397Z,12.21
2022-12-29T11:58:16.761Z,12.11
2022-12-29T12:01:06.859Z,11.97
2022-12-29T12:04:02.124Z,12.04
2022-12-29T12:06:55.090Z,11.94
2022-12-29T12:10:07.719Z,11.89
2022-12-29T12:13:01.726Z,11.81
2022-12-29T12:16:03.036Z,11.84
2022-12-29T12:18:59.933Z,11.81
2022-12-29T12:21:51.316Z,11.77
2022-12-29T12:24:53.022Z,11.74
2022-12-29T12:27:49.880Z,11.75
2022-12-29T12:30:41.732Z,11.69
2022-12-29T12:33:39.950Z,11.70
2022-12-29T12:37:02.803Z,11.73
2022-12-29T12:40:01.270Z,11.74
2022-12-29T12:43:01.270Z,11.73
2022-12-29T12:46:18.957Z,11.71
2022-12-29T12:49:40.398Z,11.64
2022-12-29T12:52:45.996Z,11.66
2022-12-29T12:55:57.048Z,11.71
2022-12-29T12:59:07.187Z,11.57
2022-12-29T13:02:31.100Z,11.49
2022-12-29T13:05:44.262Z,11.57
2022-12-29T13:08:50.445Z,11.50
2022-12-29T13:11:57.397Z,11.49
2022-12-29T13:15:09.539Z,11.46
2022-12-29T13:18:14.688Z,11.44
2022-12-29T13:21:20.369Z,11.41
2022-12-29T13:24:24.462Z,11.35
2022-12-29T13:27:20.277Z,11.38
2022-12-29T13:30:15.952Z,11.38
2022-12-29T13:33:34.912Z,11.36
2022-12-29T13:36:35.152Z,11.34
2022-12-29T13:39:34.024Z,11.33
2022-12-29T13:42:20.350Z,11.28
2022-12-29T13:45:14.391Z,11.29
2022-12-29T13:48:22.428Z,11.26
2022-12-29T13:51:10.395Z,11.23
2022-12-29T13:54:11.038Z,11.24
2022-12-29T13:57:11.184Z,11.25
2022-12-29T14:00:02.680Z,11.17
2022-12-29T14:02:47.882Z,11.10
2022-12-29T14:05:33.702Z,11.10
2022-12-29T14:08:19.151Z,10.93
2022-12-29T14:11:16.628Z,10.83
2022-12-29T14:14:23.729Z,10.71
2022-12-29T14:17:15.163Z,10.50
2022-12-29T14:20:00.895Z,10.42
2022-12-29T14:23:17.788Z,10.34
2022-12-29T14:26:05.753Z,10.24
2022-12-29T14:28:50.703Z,10.27
2022-12-29T14:31:41.537Z,10.32
2022-12-29T14:34:29.971Z,10.37
2022-12-29T14:37:30.025Z,10.33
2022-12-29T14:40:23.992Z,10.28
2022-12-29T14:43:26.158Z,10.25
2022-12-29T14:46:11.373Z,10.19
2022-12-29T14:48:59.729Z,10.22
2022-12-29T14:51:46.422Z,10.20
2022-12-29T14:54:41.535Z,10.12
2022-12-29T14:57:34.750Z,10.04
2022-12-29T15:00:25.368Z,9.87
2022-12-29T15:03:24.936Z,9.70
2022-12-29T15:06:12.455Z,9.65
2022-12-29T15:09:07.280Z,9.59
2022-12-29T15:11:55.807Z,9.53
2022-12-29T15:14:50.625Z,9.48
2022-12-29T15:17:35.655Z,9.48
2022-12-29T15:20:32.347Z,9.40
2022-12-29T15:23:18.080Z,9.43
2022-12-29T15:26:06.540Z,9.33
2022-12-29T15:28:53.737Z,9.22
2022-12-29T15:31:47.996Z,9.26
2022-12-29T15:34:32.936Z,9.35
2022-12-29T15:37:32.884Z,9.29
2022-12-29T15:40:38.085Z,9.22
2022-12-29T15:43:39.477Z,9.18
2022-12-29T15:46:28.304Z,9.13
2022-12-29T15:49:14.997Z,9.24
2022-12-29T15:52:00.273Z,9.26
2022-12-29T15:54:45.299Z,9.31
2022-12-29T15:57:42.689Z,9.32
2022-12-29T16:00:37.255Z,9.20
2022-12-29T16:03:23.947Z,9.20
2022-12-29T16:06:36.785Z,9.06
2022-12-29T16:09:35.820Z,8.98
2022-12-29T16:12:27.397Z,8.94
2022-12-29T16:15:14.990Z,8.78
2022-12-29T16:18:00.429Z,8.74
2022-12-29T16:20:46.433Z,8.68
2022-12-29T16:23:33.105Z,8.60
2022-12-29T16:26:20.649Z,8.59
2022-12-29T16:29:08.332Z,8.54
2022-12-29T16:32:03.765Z,8.57
2022-12-29T16:34:48.870Z,8.59
2022-12-29T16:37:37.065Z,8.56
2022-12-29T16:40:27.011Z,8.47
2022-12-29T16:43:43.286Z,8.33
2022-12-29T16:46:31.079Z,8.53
2022-12-29T16:49:21.201Z,8.46
2022-12-29T16:52:22.023Z,8.45
2022-12-29T16:55:16.149Z,8.57
2022-12-29T16:58:01.402Z,8.52
2022-12-29T17:00:47.583Z,8.51
2022-12-29T17:03:40.745Z,8.49
2022-12-29T17:06:25.830Z,8.47
2022-12-29T17:09:27.603Z,8.41
2022-12-29T17:12:17.543Z,8.37
2022-12-29T17:15:07.366Z,8.42
2022-12-29T17:17:55.085Z,8.43
2022-12-29T17:20:40.341Z,8.43
2022-12-29T17:23:26.803Z,8.36
2022-12-29T17:26:13.114Z,8.32
2022-12-29T17:28:58.216Z,8.19
2022-12-29T17:31:43.477Z,8.17
2022-12-29T17:34:28.679Z,8.17
2022-12-29T17:37:29.894Z,8.10
2022-12-29T17:40:18.174Z,8.08
2022-12-29T17:43:02.927Z,8.04
2022-12-29T17:45:52.890Z,8.03
2022-12-29T17:48:37.702Z,7.97
2022-12-29T17:51:23.157Z,7.97
2022-12-29T17:54:21.137Z,7.94
2022-12-29T17:57:06.284Z,7.92
2022-12-29T17:59:51.329Z,7.91
2022-12-29T18:02:36.434Z,7.93
2022-12-29T18:05:22.872Z,7.97
2022-12-29T18:08:10.370Z,7.86
2022-12-29T18:10:55.753Z,8.00
2022-12-29T18:13:46.272Z,8.07
2022-12-29T18:16:31.710Z,8.08
2022-12-29T18:19:17.148Z,8.07
2022-12-29T18:22:02.124Z,8.09
2022-12-29T18:24:46.923Z,8.07
2022-12-29T18:27:32.487Z,8.07
2022-12-29T18:30:18.120Z,8.11
2022-12-29T18:33:04.062Z,8.18
2022-12-29T18:35:57.376Z,8.22
2022-12-29T18:38:42.463Z,8.24
2022-12-29T18:41:31.688Z,8.23
2022-12-29T18:44:16.913Z,8.21
2022-12-29T18:47:02.211Z,8.12
2022-12-29T18:49:46.967Z,8.14
2022-12-29T18:52:32.214Z,8.14
2022-12-29T18:55:23.502Z,8.03
2022-12-29T18:58:08.527Z,8.05
2022-12-29T19:00:54.363Z,8.14
2022-12-29T19:03:39.143Z,8.21
2022-12-29T19:06:24.110Z,8.25
2022-12-29T19:09:09.649Z,8.28
2022-12-29T19:11:54.455Z,8.33
2022-12-29T19:14:39.390Z,8.35
2022-12-29T19:17:24.478Z,8.35
2022-12-29T19:20:32.179Z,8.31
2022-12-29T19:23:20.204Z,8.22
2022-12-29T19:26:05.728Z,8.13
2022-12-29T19:28:50.623Z,8.04
2022-12-29T19:31:37.676Z,7.98
2022-12-29T19:34:22.568Z,7.90
2022-12-29T19:37:07.622Z,7.83
2022-12-29T19:39:53.109Z,7.72
2022-12-29T19:42:38.109Z,7.64
2022-12-29T19:45:23.367Z,7.59
2022-12-29T19:48:13.512Z,7.57
2022-12-29T19:51:07.596Z,7.51
2022-12-29T19:53:53.561Z,7.49
2022-12-29T19:56:42.767Z,7.37
2022-12-29T19:59:27.929Z,7.38
2022-12-29T20:02:25.434Z,7.36
2022-12-29T20:05:11.194Z,7.33
2022-12-29T20:07:55.957Z,7.50
2022-12-29T20:10:40.905Z,7.39
2022-12-29T20:13:26.153Z,7.35
2022-12-29T20:16:14.491Z,7.41
2022-12-29T20:18:59.320Z,7.49
2022-12-29T20:21:44.031Z,7.46
2022-12-29T20:24:29.852Z,7.38
2022-12-29T20:27:15.028Z,7.31
2022-12-29T20:30:00.054Z,7.33
2022-12-29T20:32:44.995Z,7.40
2022-12-29T20:35:29.989Z,7.31
2022-12-29T20:38:15.227Z,7.23
2022-12-29T20:41:00.768Z,7.17
2022-12-29T20:43:45.799Z,7.20
2022-12-29T20:46:36.680Z,7.17
2022-12-29T20:49:28.832Z,7.20
2022-12-29T20:52:13.648Z,7.18
2022-12-29T20:54:58.913Z,7.18
2022-12-29T20:58:22.084Z,7.04
2022-12-29T21:00:48.941Z,7.09
2022-12-29T21:03:34.988Z,7.06
2022-12-29T21:06:21.235Z,7.00
2022-12-29T21:09:06.433Z,6.95
2022-12-29T21:11:51.319Z,7.02
2022-12-29T21:14:38.581Z,6.94
2022-12-29T21:17:27.590Z,6.97
2022-12-29T21:20:19.627Z,7.01
2022-12-29T21:23:05.320Z,7.01
2022-12-29T21:25:50.214Z,6.91
2022-12-29T21:28:39.264Z,6.86
2022-12-29T21:31:34.878Z,6.77
2022-12-29T21:34:19.746Z,6.83
2022-12-29T21:37:05.020Z,6.79
2022-12-29T21:39:49.813Z,6.84
2022-12-29T21:42:34.706Z,6.83
2022-12-29T21:45:25.986Z,6.84
2022-12-29T21:48:28.638Z,6.83
2022-12-29T21:51:32.667Z,6.79
2022-12-29T21:54:44.974Z,6.97
2022-12-29T21:57:48.378Z,6.96
2022-12-29T22:00:52.214Z,6.91
2022-12-29T22:03:56.929Z,6.98
2022-12-29T22:07:00.538Z,6.93
2022-12-29T22:10:04.032Z,7.02
2022-12-29T22:13:05.281Z,6.92
2022-12-29T22:15:50.513Z,6.89
2022-12-29T22:18:36.521Z,6.86
2022-12-29T22:21:21.692Z,6.99
2022-12-29T22:24:08.330Z,6.90
2022-12-29T22:26:53.540Z,6.93
2022-12-29T22:29:38.357Z,6.93
2022-12-29T22:32:23.875Z,7.03
2022-12-29T22:35:10.173Z,6.92
2022-12-29T22:37:55.315Z,6.88
2022-12-29T22:40:40.394Z,6.94
2022-12-29T22:43:25.497Z,7.03
2022-12-29T22:46:10.944Z,7.02
2022-12-29T22:48:57.481Z,7.02
2022-12-29T22:51:42.396Z,7.05
2022-12-29T22:54:27.593Z,7.03
2022-12-29T22:57:12.933Z,7.03
2022-12-29T22:59:57.936Z,6.88
2022-12-29T23:02:42.899Z,6.95
2022-12-29T23:05:28.277Z,6.94
2022-12-29T23:08:13.433Z,6.90
2022-12-29T23:10:59.059Z,6.82
2022-12-29T23:13:44.955Z,6.80
2022-12-29T23:16:29.855Z,6.74
2022-12-29T23:19:14.919Z,6.70
2022-12-29T23:22:00.102Z,6.68
2022-12-29T23:24:44.971Z,6.62
2022-12-29T23:27:30.262Z,6.55
2022-12-29T23:30:15.300Z,6.48
2022-12-29T23:33:00.442Z,6.53
2022-12-29T23:35:45.260Z,6.53
2022-12-29T23:38:30.336Z,6.50
2022-12-29T23:41:15.357Z,6.53
2022-12-29T23:44:00.476Z,6.59
2022-12-29T23:46:45.690Z,6.50
2022-12-29T23:49:31.029Z,6.48
2022-12-29T23:52:15.962Z,6.44
2022-12-29T23:55:01.048Z,6.48
2022-12-29T23:57:45.930Z,6.38
